createdAt,value
2019-01-19T00:01:33.964Z,19.62
2019-01-19T00:04:22.115Z,16.62
2019-01-19T00:07:24.309Z,18.35
2019-01-19T00:10:06.470Z,16.85
2019-01-19T00:12:51.964Z,16.90
2019-01-19T00:15:22.245Z,18.42
2019-01-19T00:17:54.753Z,18.85
2019-01-19T00:20:43.519Z,16.52
2019-01-19T00:23:23.483Z,11.95
2019-01-19T00:26:16.411Z,13.95
2019-01-19T00:29:04.901Z,14.38
2019-01-19T00:31:41.249Z,15.75
2019-01-19T00:34:14.311Z,15.75
2019-01-19T00:36:44.587Z,16.25
2019-01-19T00:39:29.970Z,14.03
2019-01-19T00:42:15.344Z,16.37
2019-01-19T00:44:48.350Z,17.02
2019-01-19T00:47:24.436Z,18.77
2019-01-19T00:49:54.976Z,14.03
2019-01-19T00:52:31.366Z,15.55
2019-01-19T00:55:13.608Z,15.78
2019-01-19T00:58:04.984Z,17.27
2019-01-19T01:00:35.237Z,14.05
2019-01-19T01:03:08.600Z,13.50
2019-01-19T01:05:38.869Z,13.58
2019-01-19T01:08:21.300Z,16.77
2019-01-19T01:10:57.556Z,17.98
2019-01-19T01:13:45.631Z,15.30
2019-01-19T01:16:24.828Z,18.87
2019-01-19T01:19:09.911Z,15.78
2019-01-19T01:21:43.266Z,14.20
2019-01-19T01:24:25.524Z,12.63
2019-01-19T01:27:14.628Z,15.78
2019-01-19T01:30:05.854Z,14.03
2019-01-19T01:32:44.975Z,15.32
2019-01-19T01:35:24.240Z,15.93
2019-01-19T01:38:09.094Z,14.80
2019-01-19T01:41:14.091Z,16.48
2019-01-19T01:43:53.508Z,15.83
2019-01-19T01:46:50.648Z,15.80
2019-01-19T01:49:25.791Z,12.40
2019-01-19T01:52:11.232Z,14.93
2019-01-19T01:54:50.123Z,14.73
2019-01-19T01:57:20.594Z,15.20
2019-01-19T01:59:59.959Z,15.55
2019-01-19T02:02:39.192Z,14.23
2019-01-19T02:05:28.339Z,15.08
2019-01-19T02:08:04.480Z,16.65
2019-01-19T02:11:00.968Z,14.70
2019-01-19T02:13:34.065Z,13.55
2019-01-19T02:16:04.301Z,15.95
2019-01-19T02:18:53.994Z,16.25
2019-01-19T02:21:33.120Z,14.03
2019-01-19T02:24:06.431Z,13.65
2019-01-19T02:26:54.847Z,13.50
2019-01-19T02:29:36.817Z,14.45
2019-01-19T02:32:06.992Z,17.17
2019-01-19T02:34:52.484Z,15.10
2019-01-19T02:37:28.564Z,14.47
2019-01-19T02:40:04.545Z,11.83
2019-01-19T02:42:50.127Z,11.88
2019-01-19T02:45:29.420Z,12.75
2019-01-19T02:47:59.923Z,12.13
2019-01-19T02:50:36.326Z,11.75
2019-01-19T02:53:18.578Z,13.85
2019-01-19T02:56:01.072Z,14.15
2019-01-19T02:58:39.784Z,14.70
2019-01-19T03:01:25.252Z,11.55
2019-01-19T03:03:58.344Z,15.35
2019-01-19T03:06:34.604Z,13.05
2019-01-19T03:09:35.139Z,13.65
2019-01-19T03:12:11.001Z,11.10
2019-01-19T03:14:50.408Z,11.97
2019-01-19T03:17:23.404Z,11.68
2019-01-19T03:20:13.500Z,10.93
2019-01-19T03:22:49.746Z,12.28
2019-01-19T03:25:45.788Z,11.57
2019-01-19T03:28:34.248Z,11.33
2019-01-19T03:31:19.746Z,11.40
2019-01-19T03:34:18.440Z,11.35
2019-01-19T03:36:51.746Z,10.58
2019-01-19T03:39:42.970Z,10.70
2019-01-19T03:42:33.752Z,10.50
2019-01-19T03:45:16.235Z,10.48
2019-01-19T03:47:52.612Z,8.88
2019-01-19T03:50:32.144Z,9.95
2019-01-19T03:53:26.154Z,10.00
2019-01-19T03:56:11.020Z,9.13
2019-01-19T03:58:57.726Z,9.25
2019-01-19T04:01:43.188Z,10.30
2019-01-19T04:04:34.389Z,8.83
2019-01-19T04:07:24.034Z,8.85
2019-01-19T04:10:13.886Z,8.65
2019-01-19T04:13:00.839Z,8.60
2019-01-19T04:15:45.961Z,8.80
2019-01-19T04:18:34.392Z,9.53
2019-01-19T04:21:04.670Z,8.55
2019-01-19T04:23:32.139Z,7.25
2019-01-19T04:26:00.213Z,7.70
2019-01-19T04:28:27.344Z,8.80
2019-01-19T04:30:53.789Z,8.33
2019-01-19T04:33:20.401Z,7.10
2019-01-19T04:35:46.862Z,9.55
2019-01-19T04:38:13.328Z,8.30
2019-01-19T04:40:39.767Z,9.05
2019-01-19T04:43:06.366Z,7.17
2019-01-19T04:45:33.030Z,8.35
2019-01-19T04:47:59.678Z,7.95
2019-01-19T04:50:26.141Z,8.10
2019-01-19T04:52:52.623Z,8.15
2019-01-19T04:55:19.127Z,7.58
2019-01-19T04:57:45.904Z,8.20
2019-01-19T05:00:14.982Z,8.05
2019-01-19T05:02:41.523Z,8.15
2019-01-19T05:05:08.115Z,8.40
2019-01-19T05:07:34.675Z,7.62
2019-01-19T05:10:01.587Z,7.78
2019-01-19T05:12:28.139Z,6.75
2019-01-19T05:14:54.620Z,9.10
2019-01-19T05:17:21.603Z,6.97
2019-01-19T05:19:48.016Z,7.12
2019-01-19T05:22:14.694Z,7.60
2019-01-19T05:24:41.136Z,8.00
2019-01-19T05:27:07.730Z,8.20
2019-01-19T05:29:34.185Z,9.10
2019-01-19T05:32:00.772Z,7.10
2019-01-19T05:34:27.242Z,8.08
2019-01-19T05:36:53.717Z,7.20
2019-01-19T05:39:20.268Z,8.20
2019-01-19T05:41:46.753Z,7.60
2019-01-19T05:44:13.308Z,7.33
2019-01-19T05:46:39.758Z,7.30
2019-01-19T05:49:06.497Z,8.25
2019-01-19T05:51:32.954Z,7.12
2019-01-19T05:53:59.704Z,7.25
2019-01-19T05:56:26.165Z,7.90
2019-01-19T05:58:52.648Z,8.15
2019-01-19T06:01:19.727Z,7.35
2019-01-19T06:03:46.456Z,6.95
2019-01-19T06:06:13.311Z,9.08
2019-01-19T06:08:39.801Z,8.70
2019-01-19T06:11:06.375Z,6.15
2019-01-19T06:13:32.865Z,8.28
2019-01-19T06:15:59.578Z,7.85
2019-01-19T06:18:26.646Z,7.80
2019-01-19T06:20:53.136Z,9.20
2019-01-19T06:23:19.574Z,7.65
2019-01-19T06:25:45.956Z,8.00
2019-01-19T06:28:12.413Z,6.47
2019-01-19T06:30:38.905Z,8.05
2019-01-19T06:33:05.534Z,13.00
2019-01-19T06:35:32.246Z,9.35
2019-01-19T06:37:58.991Z,7.78
2019-01-19T06:40:25.448Z,7.17
2019-01-19T06:42:52.042Z,9.00
2019-01-19T06:45:21.156Z,10.88
2019-01-19T06:47:47.648Z,9.30
2019-01-19T06:50:15.803Z,9.75
2019-01-19T06:52:42.479Z,8.00
2019-01-19T06:55:17.349Z,7.90
2019-01-19T06:57:43.842Z,9.50
2019-01-19T07:00:13.082Z,7.53
2019-01-19T07:02:39.709Z,7.97
2019-01-19T07:05:07.068Z,7.35
2019-01-19T07:07:33.638Z,8.88
2019-01-19T07:10:00.228Z,8.43
2019-01-19T07:12:26.948Z,6.35
2019-01-19T07:14:53.656Z,7.90
2019-01-19T07:17:20.209Z,6.60
2019-01-19T07:19:46.940Z,7.30
2019-01-19T07:22:13.606Z,7.37
2019-01-19T07:24:40.188Z,6.58
2019-01-19T07:27:06.661Z,6.72
2019-01-19T07:29:33.110Z,7.05
2019-01-19T07:31:59.701Z,6.75
2019-01-19T07:34:26.156Z,8.35
2019-01-19T07:36:52.743Z,6.37
2019-01-19T07:39:19.316Z,7.97
2019-01-19T07:41:45.903Z,6.05
2019-01-19T07:44:12.448Z,6.85
2019-01-19T07:46:39.408Z,7.35
2019-01-19T07:49:05.998Z,6.30
2019-01-19T07:51:32.469Z,7.60
2019-01-19T07:53:59.084Z,5.87
2019-01-19T07:56:25.525Z,7.60
2019-01-19T07:58:52.018Z,7.03
2019-01-19T08:01:18.566Z,6.70
2019-01-19T08:03:44.952Z,6.55
2019-01-19T08:06:11.409Z,5.22
2019-01-19T08:08:37.801Z,6.72
2019-01-19T08:11:04.468Z,6.40
2019-01-19T08:13:30.921Z,5.72
2019-01-19T08:15:57.499Z,5.55
2019-01-19T08:18:24.168Z,6.00
2019-01-19T08:20:50.659Z,6.42
2019-01-19T08:23:17.116Z,5.05
2019-01-19T08:25:43.725Z,5.70
2019-01-19T08:28:10.178Z,5.72
2019-01-19T08:30:36.671Z,6.75
2019-01-19T08:33:03.250Z,5.83
2019-01-19T08:35:29.801Z,5.55
2019-01-19T08:37:56.489Z,6.08
2019-01-19T08:40:25.431Z,5.53
2019-01-19T08:43:05.916Z,5.47
2019-01-19T08:45:32.629Z,3.90
2019-01-19T08:47:59.629Z,4.72
2019-01-19T08:50:26.185Z,4.62
2019-01-19T08:52:52.781Z,5.37
2019-01-19T08:55:19.441Z,5.42
2019-01-19T08:57:45.915Z,5.03
2019-01-19T09:00:16.519Z,5.10
2019-01-19T09:02:43.305Z,5.17
2019-01-19T09:05:10.480Z,5.50
2019-01-19T09:07:37.036Z,6.25
2019-01-19T09:10:12.826Z,3.90
2019-01-19T09:12:39.588Z,4.22
2019-01-19T09:15:10.237Z,4.12
2019-01-19T09:17:36.920Z,4.10
2019-01-19T09:20:09.640Z,4.37
2019-01-19T09:22:36.074Z,4.05
2019-01-19T09:25:04.856Z,4.62
2019-01-19T09:27:31.420Z,4.85
2019-01-19T09:29:57.988Z,5.00
2019-01-19T09:32:24.966Z,5.05
2019-01-19T09:34:51.541Z,4.40
2019-01-19T09:37:17.995Z,5.50
2019-01-19T09:39:44.544Z,4.80
2019-01-19T09:42:11.111Z,5.63
2019-01-19T09:44:37.929Z,5.70
2019-01-19T09:47:04.495Z,5.07
2019-01-19T09:49:31.059Z,5.20
2019-01-19T09:51:57.630Z,4.58
2019-01-19T09:54:25.004Z,8.43
2019-01-19T09:56:51.561Z,12.78
2019-01-19T09:59:17.992Z,7.97
2019-01-19T10:01:44.607Z,5.20
2019-01-19T10:04:10.978Z,3.90
2019-01-19T10:06:37.824Z,4.80
2019-01-19T10:09:06.421Z,4.85
2019-01-19T10:11:33.255Z,4.95
2019-01-19T10:13:59.735Z,4.40
2019-01-19T10:16:26.278Z,4.15
2019-01-19T10:18:52.848Z,5.45
2019-01-19T10:21:20.789Z,7.05
2019-01-19T10:23:48.919Z,4.92
2019-01-19T10:26:20.430Z,5.00
2019-01-19T10:28:50.143Z,5.72
2019-01-19T10:31:16.716Z,7.45
2019-01-19T10:33:43.356Z,5.47
2019-01-19T10:36:10.126Z,7.28
2019-01-19T10:38:36.579Z,7.25
2019-01-19T10:41:05.123Z,8.88
2019-01-19T10:43:34.334Z,6.08
2019-01-19T10:45:59.950Z,8.40
2019-01-19T10:48:26.529Z,7.30
2019-01-19T10:50:53.101Z,5.95
2019-01-19T10:53:19.947Z,6.00
2019-01-19T10:55:46.611Z,5.47
2019-01-19T10:58:15.299Z,6.85
2019-01-19T11:00:41.965Z,7.35
2019-01-19T11:03:08.757Z,6.65
2019-01-19T11:05:35.333Z,6.70
2019-01-19T11:08:04.091Z,4.80
2019-01-19T11:10:36.346Z,4.95
2019-01-19T11:13:29.306Z,7.15
2019-01-19T11:15:58.003Z,5.05
2019-01-19T11:18:24.460Z,8.40
2019-01-19T11:20:50.928Z,6.00
2019-01-19T11:23:17.293Z,7.15
2019-01-19T11:25:44.414Z,5.80
2019-01-19T11:28:12.980Z,7.17
2019-01-19T11:30:39.740Z,8.35
2019-01-19T11:33:06.105Z,5.92
2019-01-19T11:35:32.688Z,10.13
2019-01-19T11:37:59.137Z,10.82
2019-01-19T11:40:28.226Z,6.47
2019-01-19T11:42:55.024Z,7.12
2019-01-19T11:45:22.161Z,9.48
2019-01-19T11:47:48.730Z,7.40
2019-01-19T11:50:15.528Z,9.20
2019-01-19T11:52:42.208Z,7.05
2019-01-19T11:55:16.661Z,11.40
2019-01-19T11:57:43.335Z,8.78
2019-01-19T12:00:21.784Z,4.95
2019-01-19T12:02:48.364Z,7.87
2019-01-19T12:05:15.136Z,10.08
2019-01-19T12:07:42.005Z,6.92
2019-01-19T12:10:16.656Z,6.70
2019-01-19T12:12:43.203Z,5.97
2019-01-19T12:15:09.806Z,8.10
2019-01-19T12:17:36.477Z,8.90
2019-01-19T12:20:18.620Z,6.70
2019-01-19T12:22:45.178Z,5.25
2019-01-19T12:25:17.621Z,5.62
2019-01-19T12:27:44.176Z,5.12
2019-01-19T12:30:14.713Z,5.20
2019-01-19T12:32:41.176Z,4.90
2019-01-19T12:35:07.824Z,5.65
2019-01-19T12:37:34.541Z,5.30
2019-01-19T12:40:01.297Z,4.87
2019-01-19T12:42:27.986Z,7.42
2019-01-19T12:44:54.558Z,4.22
2019-01-19T12:47:21.420Z,5.15
2019-01-19T12:49:47.791Z,5.95
2019-01-19T12:52:14.251Z,5.75
2019-01-19T12:54:40.824Z,4.37
2019-01-19T12:57:07.373Z,6.40
2019-01-19T12:59:34.046Z,5.30
2019-01-19T13:02:00.711Z,8.10
2019-01-19T13:04:27.422Z,7.25
2019-01-19T13:06:54.060Z,5.45
2019-01-19T13:09:20.729Z,5.37
2019-01-19T13:11:53.790Z,4.78
2019-01-19T13:14:20.568Z,4.85
2019-01-19T13:16:56.784Z,7.60
2019-01-19T13:19:30.123Z,8.75
2019-01-19T13:22:25.877Z,5.90
2019-01-19T13:25:13.517Z,7.42
2019-01-19T13:27:59.180Z,4.55
2019-01-19T13:30:41.287Z,6.72
2019-01-19T13:33:37.116Z,7.45
2019-01-19T13:36:10.550Z,4.87
2019-01-19T13:39:11.088Z,5.90
2019-01-19T13:41:59.096Z,3.62
2019-01-19T13:44:47.457Z,5.50
2019-01-19T13:47:41.153Z,8.00
2019-01-19T13:50:29.632Z,6.42
2019-01-19T13:53:02.904Z,5.40
2019-01-19T13:55:45.271Z,5.12
2019-01-19T13:58:15.637Z,6.12
2019-01-19T14:00:51.746Z,6.22
2019-01-19T14:03:37.160Z,6.67
2019-01-19T14:06:16.258Z,7.62
2019-01-19T14:09:01.529Z,5.78
2019-01-19T14:12:03.393Z,5.65
2019-01-19T14:14:49.817Z,5.87
2019-01-19T14:17:39.637Z,5.30
2019-01-19T14:20:29.291Z,5.28
2019-01-19T14:23:05.845Z,7.03
2019-01-19T14:25:51.284Z,4.47
2019-01-19T14:28:30.171Z,5.20
2019-01-19T14:31:21.623Z,6.08
2019-01-19T14:33:57.613Z,5.20
2019-01-19T14:36:28.180Z,8.25
2019-01-19T14:39:01.554Z,4.37
2019-01-19T14:41:51.172Z,3.87
2019-01-19T14:44:38.952Z,5.72
2019-01-19T14:47:12.208Z,7.50
2019-01-19T14:50:08.446Z,7.35
2019-01-19T14:52:44.666Z,6.42
2019-01-19T14:55:17.704Z,5.25
2019-01-19T14:58:00.061Z,6.72
2019-01-19T15:00:36.343Z,6.70
2019-01-19T15:03:09.628Z,7.87
2019-01-19T15:05:52.124Z,4.60
2019-01-19T15:08:37.800Z,8.08
2019-01-19T15:11:10.874Z,6.37
2019-01-19T15:13:56.043Z,7.33
2019-01-19T15:16:52.135Z,7.45
2019-01-19T15:19:28.546Z,7.35
2019-01-19T15:22:18.788Z,5.15
2019-01-19T15:24:51.817Z,6.35
2019-01-19T15:27:25.099Z,4.37
2019-01-19T15:30:04.148Z,6.35
2019-01-19T15:32:34.535Z,3.70
2019-01-19T15:35:19.973Z,5.60
2019-01-19T15:38:14.711Z,6.97
2019-01-19T15:41:10.435Z,6.50
2019-01-19T15:43:46.665Z,4.90
2019-01-19T15:46:50.025Z,4.83
2019-01-19T15:49:43.043Z,3.98
2019-01-19T15:52:13.332Z,3.83
2019-01-19T15:54:55.568Z,4.75
2019-01-19T15:57:25.954Z,3.92
2019-01-19T16:00:02.173Z,3.55
2019-01-19T16:02:38.911Z,5.08
2019-01-19T16:05:30.155Z,4.35
2019-01-19T16:08:03.703Z,3.87
2019-01-19T16:10:50.438Z,4.67
2019-01-19T16:13:32.772Z,4.15
2019-01-19T16:16:09.223Z,3.92
2019-01-19T16:18:56.329Z,3.95
2019-01-19T16:21:38.632Z,5.72
2019-01-19T16:24:08.901Z,5.45
2019-01-19T16:26:44.973Z,4.50
2019-01-19T16:29:29.821Z,4.60
2019-01-19T16:32:25.389Z,4.40
2019-01-19T16:34:58.397Z,3.98
2019-01-19T16:37:43.913Z,5.67
2019-01-19T16:40:22.991Z,4.80
2019-01-19T16:42:59.181Z,5.30
2019-01-19T16:45:53.629Z,4.30
2019-01-19T16:48:39.087Z,5.00
2019-01-19T16:51:36.273Z,4.10
2019-01-19T16:54:06.751Z,4.35
2019-01-19T16:56:37.015Z,3.90
2019-01-19T16:59:31.561Z,4.50
2019-01-19T17:02:04.846Z,5.22
2019-01-19T17:04:37.966Z,6.00
2019-01-19T17:07:20.089Z,5.58
2019-01-19T17:09:59.117Z,5.65
2019-01-19T17:12:47.419Z,8.05
2019-01-19T17:15:50.901Z,5.50
2019-01-19T17:18:21.180Z,5.22
2019-01-19T17:21:09.630Z,5.87
2019-01-19T17:23:58.080Z,5.75
2019-01-19T17:26:52.733Z,5.40
2019-01-19T17:29:25.749Z,5.50
2019-01-19T17:31:58.939Z,6.40
2019-01-19T17:34:29.275Z,4.97
2019-01-19T17:37:08.751Z,7.10
2019-01-19T17:40:08.101Z,5.50
2019-01-19T17:42:53.285Z,5.85
2019-01-19T17:45:43.126Z,5.22
2019-01-19T17:48:40.272Z,5.85
2019-01-19T17:51:22.679Z,5.33
2019-01-19T17:54:09.632Z,5.87
2019-01-19T17:56:51.996Z,6.00
2019-01-19T17:59:38.636Z,5.05
2019-01-19T18:02:34.689Z,5.50
2019-01-19T18:05:13.248Z,6.33
2019-01-19T18:07:52.285Z,6.03
2019-01-19T18:10:43.641Z,6.08
2019-01-19T18:13:25.811Z,5.17
2019-01-19T18:16:02.341Z,4.78
2019-01-19T18:18:44.881Z,5.15
2019-01-19T18:21:27.011Z,5.90
2019-01-19T18:24:25.972Z,5.90
2019-01-19T18:27:16.100Z,5.87
2019-01-19T18:29:55.352Z,6.45
2019-01-19T18:32:34.680Z,6.00
2019-01-19T18:35:04.861Z,5.92
2019-01-19T18:37:43.949Z,7.70
2019-01-19T18:40:38.496Z,6.47
2019-01-19T18:43:11.793Z,5.28
2019-01-19T18:46:00.181Z,6.08
2019-01-19T18:48:39.286Z,6.33
2019-01-19T18:51:15.388Z,6.87
2019-01-19T18:53:45.792Z,7.80
2019-01-19T18:56:25.156Z,7.33
2019-01-19T18:59:07.653Z,9.60
2019-01-19T19:01:53.158Z,6.90
2019-01-19T19:04:23.423Z,8.03
2019-01-19T19:06:59.564Z,7.80
2019-01-19T19:09:47.581Z,8.58
2019-01-19T19:12:41.769Z,8.10
2019-01-19T19:15:20.897Z,12.73
2019-01-19T19:18:00.033Z,9.88
2019-01-19T19:20:36.212Z,7.92
2019-01-19T19:23:14.902Z,8.63
2019-01-19T19:25:48.020Z,8.60
2019-01-19T19:28:27.256Z,7.78
2019-01-19T19:31:16.084Z,7.37
2019-01-19T19:34:07.760Z,7.70
2019-01-19T19:36:43.647Z,8.45
2019-01-19T19:39:23.157Z,9.23
2019-01-19T19:42:18.966Z,9.45
2019-01-19T19:45:13.468Z,7.78
2019-01-19T19:47:46.759Z,13.18
2019-01-19T19:50:22.544Z,14.60
2019-01-19T19:52:49.267Z,10.00
2019-01-19T19:55:15.732Z,8.58
2019-01-19T19:57:42.212Z,9.13
2019-01-19T20:00:09.959Z,9.70
2019-01-19T20:02:36.690Z,8.60
2019-01-19T20:05:06.935Z,9.90
2019-01-19T20:07:33.417Z,8.33
2019-01-19T20:10:00.359Z,10.00
2019-01-19T20:12:26.964Z,11.55
2019-01-19T20:14:53.433Z,9.65
2019-01-19T20:17:20.004Z,8.10
2019-01-19T20:19:46.565Z,8.83
2019-01-19T20:22:13.149Z,9.23
2019-01-19T20:24:39.603Z,8.93
2019-01-19T20:27:06.283Z,8.05
2019-01-19T20:29:32.686Z,7.67
2019-01-19T20:31:59.456Z,8.40
2019-01-19T20:34:26.044Z,7.60
2019-01-19T20:36:52.720Z,7.75
2019-01-19T20:39:19.316Z,8.18
2019-01-19T20:41:46.002Z,9.73
2019-01-19T20:44:12.553Z,8.15
2019-01-19T20:46:39.096Z,7.10
2019-01-19T20:49:05.747Z,7.83
2019-01-19T20:51:32.331Z,6.60
2019-01-19T20:53:59.036Z,6.87
2019-01-19T20:56:25.512Z,9.68
2019-01-19T20:58:52.246Z,9.05
2019-01-19T21:01:18.932Z,7.03
2019-01-19T21:03:45.556Z,8.03
2019-01-19T21:06:12.211Z,7.17
2019-01-19T21:08:38.803Z,8.15
2019-01-19T21:11:05.264Z,5.40
2019-01-19T21:13:31.761Z,6.78
2019-01-19T21:15:58.212Z,7.53
2019-01-19T21:18:24.626Z,9.63
2019-01-19T21:20:51.189Z,7.80
2019-01-19T21:23:17.929Z,8.20
2019-01-19T21:25:44.314Z,9.08
2019-01-19T21:28:11.012Z,6.72
2019-01-19T21:30:37.593Z,7.60
2019-01-19T21:33:04.637Z,7.00
2019-01-19T21:35:31.199Z,7.12
2019-01-19T21:37:57.648Z,6.70
2019-01-19T21:40:24.125Z,6.47
2019-01-19T21:42:50.586Z,6.90
2019-01-19T21:45:19.289Z,7.15
2019-01-19T21:47:45.961Z,7.12
2019-01-19T21:50:14.062Z,7.62
2019-01-19T21:52:40.651Z,7.92
2019-01-19T21:55:08.294Z,6.90
2019-01-19T21:57:34.744Z,7.58
2019-01-19T22:00:01.829Z,8.00
2019-01-19T22:02:28.394Z,8.55
2019-01-19T22:04:55.163Z,8.25
2019-01-19T22:07:21.691Z,8.83
2019-01-19T22:09:48.208Z,11.00
2019-01-19T22:12:14.665Z,9.53
2019-01-19T22:14:41.503Z,6.35
2019-01-19T22:17:08.104Z,6.12
2019-01-19T22:19:34.597Z,7.25
2019-01-19T22:22:01.076Z,8.75
2019-01-19T22:24:27.674Z,7.80
2019-01-19T22:26:54.556Z,7.25
2019-01-19T22:29:21.181Z,7.50
2019-01-19T22:31:47.789Z,7.12
2019-01-19T22:34:14.239Z,8.88
2019-01-19T22:36:40.937Z,6.78
2019-01-19T22:39:07.402Z,6.20
2019-01-19T22:41:35.877Z,6.92
2019-01-19T22:44:03.173Z,7.35
2019-01-19T22:46:29.875Z,7.25
2019-01-19T22:48:56.450Z,6.78
2019-01-19T22:51:22.906Z,6.22
2019-01-19T22:53:49.486Z,6.40
2019-01-19T22:56:16.031Z,7.55
2019-01-19T22:58:42.699Z,6.05
2019-01-19T23:01:13.062Z,6.75
2019-01-19T23:03:39.871Z,7.15
2019-01-19T23:06:06.733Z,7.00
2019-01-19T23:08:33.410Z,6.08
2019-01-19T23:11:01.222Z,6.10
2019-01-19T23:13:27.936Z,6.55
2019-01-19T23:15:54.580Z,6.12
2019-01-19T23:18:21.197Z,6.47
2019-01-19T23:20:48.056Z,5.25
2019-01-19T23:23:14.812Z,6.55
2019-01-19T23:25:41.493Z,6.05
2019-01-19T23:28:08.068Z,6.33
2019-01-19T23:30:34.636Z,6.40
2019-01-19T23:33:01.289Z,6.60
2019-01-19T23:35:28.092Z,6.10
2019-01-19T23:37:54.840Z,6.70
2019-01-19T23:40:21.322Z,8.63
2019-01-19T23:42:47.981Z,6.20
2019-01-19T23:45:14.655Z,5.83
2019-01-19T23:47:41.415Z,6.67
2019-01-19T23:50:09.068Z,6.72
2019-01-19T23:52:35.791Z,6.50
2019-01-19T23:55:03.399Z,6.65
2019-01-19T23:57:29.944Z,5.90
2019-01-19T23:59:56.528Z,7.00
